Time;durP1;ratioP1;P1;durP2;ratioP2;P2;SDS_P1;SDS_P2;PMS_P1;PMS_P2;Temp;Humidity;BMP_temperature;BMP_pressure;BME280_temperature;BME280_humidity;BME280_pressure;Samples;Min_cycle;Max_cycle;Signal;HPM_P1;HPM_P2
2021/05/06 00:00:56;;;;;;;3.30;1.40;;;13.90;81.80;21.60;99021.00;;;;5069006;28;20536;-69
2021/05/06 00:32:38;;;;;;;3.53;1.30;;;13.90;81.70;21.40;99066.00;;;;5068160;28;20430;-69
2021/05/06 00:35:06;;;;;;;3.20;1.20;;;13.80;81.60;21.20;99063.00;;;;5068600;28;20517;-70
2021/05/06 00:37:40;;;;;;;3.40;1.50;;;13.80;81.60;21.40;99069.00;;;;5069644;28;20449;-68
2021/05/06 00:40:09;;;;;;;3.10;1.20;;;13.90;81.50;21.40;99086.00;;;;5068812;28;20438;-70
2021/05/06 01:09:15;;;;;;;3.07;1.07;;;13.80;81.50;21.10;99087.00;;;;5071697;28;20557;-68
2021/05/06 01:11:49;;;;;;;2.87;0.97;;;13.80;81.50;21.30;99103.00;;;;5072739;28;20494;-68
2021/05/06 01:14:15;;;;;;;3.00;1.00;;;13.80;81.30;21.20;99091.00;;;;5040461;28;20511;-68
2021/05/06 01:16:41;;;;;;;3.17;1.10;;;13.80;81.50;21.00;99101.00;;;;5071946;28;20482;-68
2021/05/06 01:19:07;;;;;;;3.70;1.17;;;13.80;81.50;21.10;99089.00;;;;5071773;28;20467;-68
2021/05/06 01:21:33;;;;;;;3.10;1.00;;;13.80;81.50;21.20;99085.00;;;;5071392;28;20209;-68
2021/05/06 01:23:58;;;;;;;3.40;1.30;;;13.70;81.30;21.30;99094.00;;;;5054991;28;20185;-71
2021/05/06 01:29:33;;;;;;;3.93;1.47;;;13.70;81.40;21.20;99099.00;;;;5000033;28;20827;-70
2021/05/06 01:32:24;;;;;;;3.60;1.17;;;13.70;81.20;21.20;99097.00;;;;5057130;28;20528;-70
2021/05/06 01:34:55;;;;;;;3.60;1.17;;;13.70;81.30;21.00;99099.00;;;;5072491;28;20439;-70
2021/05/06 01:37:34;;;;;;;3.30;1.40;;;13.70;81.20;21.00;99098.00;;;;5053088;28;20462;-70
2021/05/06 01:42:47;;;;;;;3.30;1.23;;;13.70;81.10;21.20;99117.00;;;;5042873;28;20443;-70
2021/05/06 01:58:56;;;;;;;3.30;1.30;;;13.70;80.90;21.00;99127.00;;;;5072362;28;20554;-69
2021/05/06 02:01:22;;;;;;;3.40;1.37;;;13.70;81.20;21.00;99125.00;;;;5056355;28;20410;-69
2021/05/06 02:03:47;;;;;;;3.40;1.20;;;13.70;80.80;21.00;99144.00;;;;5070740;28;20579;-69
2021/05/06 02:06:13;;;;;;;4.27;1.40;;;13.70;80.80;21.30;99140.00;;;;5070657;28;20181;-69
2021/05/06 02:08:39;;;;;;;3.17;1.10;;;13.70;80.80;21.20;99146.00;;;;5053931;28;20205;-69
2021/05/06 02:11:05;;;;;;;4.03;1.37;;;13.60;80.90;21.20;99130.00;;;;5071598;28;20418;-70
2021/05/06 02:13:31;;;;;;;3.40;1.40;;;13.60;80.90;21.00;99138.00;;;;5071252;28;20197;-69
2021/05/06 02:16:05;;;;;;;3.40;1.40;;;13.60;80.90;21.20;99143.00;;;;5070724;28;20410;-69
2021/05/06 02:18:34;;;;;;;3.20;1.17;;;13.60;80.70;21.20;99141.00;;;;5072495;28;20223;-70
2021/05/06 02:21:00;;;;;;;3.20;1.10;;;13.60;80.80;20.90;99137.00;;;;5070399;28;20414;-69
2021/05/06 02:23:26;;;;;;;3.50;1.40;;;13.60;80.70;21.10;99146.00;;;;5070673;28;20491;-69
2021/05/06 02:25:52;;;;;;;3.30;1.17;;;13.60;80.60;21.10;99145.00;;;;5037559;28;20250;-69
2021/05/06 02:28:17;;;;;;;3.23;1.20;;;13.60;80.70;21.10;99144.00;;;;5037161;28;20197;-69
2021/05/06 02:30:43;;;;;;;3.20;1.10;;;13.60;80.60;21.20;99136.00;;;;5037413;28;20271;-70
2021/05/06 02:33:09;;;;;;;3.20;1.07;;;13.60;80.80;20.90;99149.00;;;;5037478;28;20205;-71
2021/05/06 02:35:36;;;;;;;3.40;1.20;;;13.60;80.60;20.80;99141.00;;;;5053670;28;20806;-70
2021/05/06 02:38:03;;;;;;;3.10;1.00;;;13.60;80.60;20.90;99136.00;;;;5037161;28;20219;-70
2021/05/06 02:40:28;;;;;;;4.37;1.50;;;13.50;80.70;21.10;99143.00;;;;5021113;28;20440;-70
2021/05/06 02:42:54;;;;;;;3.30;1.10;;;13.60;80.60;20.90;99139.00;;;;5053823;28;20497;-70
2021/05/06 02:45:20;;;;;;;3.80;1.40;;;13.50;80.40;21.10;99154.00;;;;5069885;28;20231;-70
2021/05/06 02:47:46;;;;;;;3.30;1.30;;;13.50;80.60;20.80;99144.00;;;;5053684;28;20197;-70
2021/05/06 02:50:15;;;;;;;3.10;1.10;;;13.50;80.60;20.90;99155.00;;;;5069990;28;20936;-70
2021/05/06 02:52:48;;;;;;;3.33;1.20;;;13.50;80.50;20.90;99154.00;;;;5070198;28;20211;-70
2021/05/06 02:57:52;;;;;;;3.10;1.20;;;13.50;80.70;21.00;99144.00;;;;5053036;28;20456;-69
2021/05/06 03:03:07;;;;;;;3.37;1.17;;;13.50;80.70;20.90;99147.00;;;;5019635;28;20474;-70
2021/05/06 03:05:36;;;;;;;2.97;0.90;;;13.50;80.50;20.90;99131.00;;;;5069441;28;21056;-69
2021/05/06 03:21:27;;;;;;;3.10;1.10;;;13.50;80.60;21.00;99161.00;;;;5070013;28;20417;-69
2021/05/06 03:23:53;;;;;;;3.10;1.20;;;13.40;80.30;21.00;99166.00;;;;5070887;28;20533;-69
2021/05/06 03:26:19;;;;;;;3.17;0.97;;;13.40;80.40;20.90;99165.00;;;;5052604;28;20428;-69
2021/05/06 03:28:55;;;;;;;3.60;1.20;;;13.40;80.40;21.00;99164.00;;;;5052997;28;20537;-69
2021/05/06 03:42:00;;;;;;;2.90;1.00;;;13.40;80.30;20.90;99176.00;;;;5040999;28;20547;-68
2021/05/06 03:44:41;;;;;;;3.30;1.20;;;13.40;80.40;20.80;99185.00;;;;5070979;28;20408;-69
2021/05/06 04:12:05;;;;;;;3.27;1.37;;;13.40;80.30;20.70;99217.00;;;;5069037;28;20712;-68
2021/05/06 04:25:39;;;;;;;3.50;1.30;;;13.30;80.30;20.60;99236.00;;;;5069079;28;20443;-68
2021/05/06 04:28:47;;;;;;;3.40;1.40;;;13.30;80.10;20.70;99231.00;;;;5037855;28;20443;-69
2021/05/06 04:36:43;;;;;;;3.87;1.50;;;13.30;80.10;20.50;99224.00;;;;5068508;28;20513;-70
2021/05/06 04:39:13;;;;;;;3.30;1.50;;;13.30;80.20;20.70;99220.00;;;;5055237;28;20421;-70
2021/05/06 04:41:53;;;;;;;3.97;1.37;;;13.30;80.30;20.40;99234.00;;;;5068933;28;20413;-70
2021/05/06 04:55:31;;;;;;;3.23;1.33;;;13.20;80.10;20.60;99231.00;;;;5068592;28;20848;-70
2021/05/06 04:58:18;;;;;;;3.30;1.40;;;13.20;80.10;20.80;99236.00;;;;5067818;28;20448;-70
2021/05/06 05:05:57;;;;;;;3.17;0.90;;;13.20;80.30;20.60;99243.00;;;;5051642;28;20417;-69
2021/05/06 05:08:23;;;;;;;3.30;1.00;;;13.30;80.30;20.60;99247.00;;;;5068290;28;20467;-70
2021/05/06 05:26:09;;;;;;;3.47;1.33;;;13.20;80.30;20.70;99244.00;;;;5051371;28;20432;-70
2021/05/06 05:28:36;;;;;;;2.97;1.03;;;13.20;80.20;20.60;99246.00;;;;5068061;28;20955;-70
2021/05/06 05:31:02;;;;;;;3.40;1.10;;;13.20;80.20;20.60;99250.00;;;;5051477;28;20530;-70
2021/05/06 05:33:31;;;;;;;2.80;0.90;;;13.20;80.10;20.70;99245.00;;;;5050658;28;20520;-70
2021/05/06 05:38:34;;;;;;;3.20;1.07;;;13.20;80.00;20.70;99247.00;;;;5072625;28;20430;-70
2021/05/06 05:54:33;;;;;;;3.40;1.30;;;13.20;80.00;20.70;99248.00;;;;5038655;28;20973;-70
2021/05/06 05:56:52;;;;;;;2.90;1.07;;;13.20;80.00;20.70;99244.00;;;;5070802;28;20961;-70
2021/05/06 05:59:18;;;;;;;4.33;1.27;;;13.20;79.90;20.60;99251.00;;;;5071137;28;20447;-71
2021/05/06 06:01:44;;;;;;;3.30;1.17;;;13.20;80.00;20.60;99250.00;;;;5054168;28;20481;-70
2021/05/06 06:04:10;;;;;;;4.07;1.10;;;13.20;80.10;20.60;99249.00;;;;5071428;28;20438;-70
2021/05/06 06:06:36;;;;;;;2.87;1.00;;;13.20;80.00;20.70;99238.00;;;;5038209;28;20173;-70
2021/05/06 06:09:02;;;;;;;3.60;1.10;;;13.20;80.00;20.50;99244.00;;;;5070463;28;20710;-70
2021/05/06 06:11:28;;;;;;;3.73;1.10;;;13.20;80.00;20.60;99250.00;;;;5038130;28;20213;-70
2021/05/06 06:13:54;;;;;;;2.90;1.00;;;13.20;80.00;20.50;99239.00;;;;5053593;28;20498;-70
2021/05/06 06:18:59;;;;;;;3.20;1.10;;;13.20;80.10;20.50;99247.00;;;;5071850;28;20458;-70
2021/05/06 06:24:06;;;;;;;2.90;1.00;;;13.20;80.10;20.40;99230.00;;;;5041014;28;20428;-70
2021/05/06 06:26:31;;;;;;;4.10;1.20;;;13.20;80.10;20.40;99225.00;;;;5054037;28;20414;-70
2021/05/06 06:29:04;;;;;;;3.87;1.17;;;13.20;80.20;20.60;99216.00;;;;5069855;28;20843;-72
2021/05/06 06:31:36;;;;;;;3.30;1.20;;;13.20;80.10;20.40;99221.00;;;;5071090;28;20188;-71
2021/05/06 06:34:03;;;;;;;3.10;1.20;;;13.20;80.10;20.40;99229.00;;;;5071659;28;20427;-70
2021/05/06 06:36:29;;;;;;;3.20;1.10;;;13.20;80.20;20.50;99224.00;;;;5053961;28;20490;-70
2021/05/06 06:38:55;;;;;;;3.43;1.23;;;13.20;80.20;20.50;99222.00;;;;5071364;28;20422;-70
2021/05/06 06:41:20;;;;;;;2.90;1.00;;;13.20;80.20;20.50;99210.00;;;;5070793;28;20196;-71
2021/05/06 06:43:51;;;;;;;3.10;1.10;;;13.20;80.30;20.60;99223.00;;;;5069760;28;20338;-70
2021/05/06 06:46:17;;;;;;;4.80;1.37;;;13.20;80.30;20.50;99221.00;;;;5072396;28;20199;-70
2021/05/06 06:48:44;;;;;;;3.23;1.10;;;13.20;80.30;20.50;99222.00;;;;5070099;28;20529;-70
2021/05/06 06:51:10;;;;;;;3.00;1.10;;;13.20;80.30;20.60;99221.00;;;;5020400;28;20174;-69
2021/05/06 06:53:36;;;;;;;3.07;0.87;;;13.20;80.30;20.40;99209.00;;;;5053312;28;20459;-70
2021/05/06 06:56:02;;;;;;;3.20;0.83;;;13.20;80.30;20.60;99216.00;;;;5053895;28;20489;-70
2021/05/06 06:58:28;;;;;;;3.20;1.00;;;13.20;80.30;20.80;99217.00;;;;5036385;28;20663;-70
2021/05/06 07:00:53;;;;;;;3.20;1.10;;;13.20;80.30;20.60;99223.00;;;;5053440;28;20435;-71
2021/05/06 07:03:19;;;;;;;3.00;1.17;;;13.20;80.30;20.70;99217.00;;;;5069919;28;20201;-70
2021/05/06 07:05:45;;;;;;;3.80;1.27;;;13.20;80.30;20.50;99224.00;;;;5052985;28;20242;-70
2021/05/06 07:08:22;;;;;;;3.40;1.10;;;13.20;80.40;20.60;99235.00;;;;5070863;28;20197;-70
2021/05/06 07:10:50;;;;;;;3.60;1.03;;;13.20;80.40;20.60;99230.00;;;;5054358;28;20177;-70
2021/05/06 07:13:17;;;;;;;2.90;0.90;;;13.20;80.40;20.60;99230.00;;;;5053009;28;20426;-69
2021/05/06 07:15:59;;;;;;;3.37;1.00;;;13.20;80.40;20.70;99224.00;;;;5036671;28;20418;-70
2021/05/06 07:18:25;;;;;;;3.40;1.07;;;13.20;80.40;20.50;99229.00;;;;5054466;28;20512;-70
2021/05/06 07:20:51;;;;;;;3.47;1.03;;;13.20;80.40;20.70;99251.00;;;;5036908;28;20659;-69
2021/05/06 07:23:19;;;;;;;3.20;1.20;;;13.20;80.40;20.60;99241.00;;;;5069725;28;20669;-70
2021/05/06 07:25:46;;;;;;;3.30;1.20;;;13.20;80.40;20.70;99245.00;;;;5036652;28;20178;-70
2021/05/06 07:28:32;;;;;;;3.43;1.27;;;13.20;80.40;20.70;99244.00;;;;5069254;28;20464;-70
2021/05/06 07:31:00;;;;;;;2.93;1.00;;;13.20;80.40;20.90;99238.00;;;;5055238;28;20961;-70
2021/05/06 07:33:31;;;;;;;2.90;0.90;;;13.20;80.40;20.60;99242.00;;;;5069122;28;20534;-70
2021/05/06 07:35:58;;;;;;;2.77;0.73;;;13.20;80.40;20.60;99243.00;;;;5051806;28;20513;-70
2021/05/06 07:38:24;;;;;;;3.53;1.00;;;13.20;80.40;20.60;99247.00;;;;5052144;28;20446;-70
2021/05/06 07:40:50;;;;;;;3.10;1.00;;;13.20;80.40;20.70;99237.00;;;;5052591;28;20845;-70
2021/05/06 07:43:16;;;;;;;3.07;1.00;;;13.20;80.40;20.60;99243.00;;;;5035809;28;20430;-70
2021/05/06 07:45:42;;;;;;;3.30;1.00;;;13.20;80.40;20.60;99236.00;;;;5035736;28;20669;-69
2021/05/06 07:48:08;;;;;;;3.47;1.07;;;13.20;80.40;20.40;99234.00;;;;5068913;28;20487;-70
2021/05/06 07:50:33;;;;;;;3.37;1.00;;;13.20;80.50;20.60;99242.00;;;;5051256;28;20737;-71
2021/05/06 07:53:05;;;;;;;6.40;1.43;;;13.20;80.40;20.60;99241.00;;;;5069969;28;20557;-70
2021/05/06 07:55:31;;;;;;;3.03;1.07;;;13.20;80.40;20.60;99234.00;;;;5068806;28;20181;-70
2021/05/06 07:57:58;;;;;;;3.07;1.17;;;13.20;80.40;20.60;99245.00;;;;5068244;28;20792;-70
2021/05/06 08:00:26;;;;;;;3.40;1.10;;;13.20;80.40;20.50;99237.00;;;;5051918;28;20439;-70
2021/05/06 08:02:52;;;;;;;3.17;1.13;;;13.20;80.40;20.50;99237.00;;;;5036116;28;20433;-70
2021/05/06 08:05:18;;;;;;;3.50;1.10;;;13.20;80.50;20.60;99235.00;;;;5069657;28;20917;-70
2021/05/06 08:07:44;;;;;;;3.83;1.37;;;13.20;80.40;20.80;99226.00;;;;5052210;28;20463;-71
2021/05/06 08:10:11;;;;;;;4.07;1.10;;;13.20;80.40;20.70;99224.00;;;;5051680;28;20479;-70
2021/05/06 08:12:37;;;;;;;3.10;1.00;;;13.20;80.40;20.70;99219.00;;;;5035668;28;20435;-70
2021/05/06 08:15:07;;;;;;;3.30;1.10;;;13.20;80.40;20.60;99218.00;;;;5051680;28;20762;-70
2021/05/06 08:17:37;;;;;;;4.23;1.30;;;13.20;80.40;20.70;99210.00;;;;5052752;28;20460;-70
2021/05/06 08:20:06;;;;;;;3.70;1.20;;;13.20;80.50;20.50;99213.00;;;;5051801;28;20421;-70
2021/05/06 08:22:32;;;;;;;3.87;1.30;;;13.20;80.40;20.80;99207.00;;;;5052161;28;20494;-70
2021/05/06 08:24:57;;;;;;;3.20;1.13;;;13.20;80.50;20.70;99207.00;;;;5068356;28;20523;-71
2021/05/06 08:27:23;;;;;;;3.03;0.90;;;13.20;80.50;20.80;99208.00;;;;5068754;28;20674;-70
2021/05/06 08:29:49;;;;;;;3.20;1.10;;;13.20;80.50;20.80;99214.00;;;;5067920;28;20212;-70
2021/05/06 08:32:15;;;;;;;3.97;1.40;;;13.20;80.50;20.80;99213.00;;;;5052119;28;20462;-70
2021/05/06 08:34:40;;;;;;;3.60;1.20;;;13.20;80.50;20.80;99201.00;;;;5068333;28;20181;-70
2021/05/06 08:37:06;;;;;;;3.30;1.20;;;13.20;80.40;20.70;99215.00;;;;5051781;28;20262;-70
2021/05/06 08:39:32;;;;;;;2.90;1.00;;;13.20;80.50;20.70;99212.00;;;;5050876;28;20639;-71
2021/05/06 08:41:59;;;;;;;3.83;1.20;;;13.20;80.50;20.70;99224.00;;;;5069563;28;20197;-70
2021/05/06 08:44:29;;;;;;;3.00;1.00;;;13.30;80.60;20.90;99215.00;;;;5051441;28;20185;-70
2021/05/06 08:47:05;;;;;;;3.27;1.03;;;13.30;80.60;20.70;99209.00;;;;5052457;28;20422;-70
2021/05/06 08:49:35;;;;;;;3.50;1.30;;;13.30;80.60;20.90;99200.00;;;;5021883;28;20449;-70
2021/05/06 08:52:04;;;;;;;4.13;1.37;;;13.30;80.60;20.90;99197.00;;;;5068719;28;20430;-71
2021/05/06 08:54:29;;;;;;;3.40;1.10;;;13.30;80.60;20.80;99202.00;;;;5051783;28;20439;-70
2021/05/06 08:56:57;;;;;;;3.50;1.00;;;13.30;80.60;20.90;99204.00;;;;5069640;28;20434;-70
2021/05/06 08:59:23;;;;;;;3.00;0.90;;;13.30;80.60;21.00;99201.00;;;;5035116;28;20177;-71
2021/05/06 09:01:49;;;;;;;3.10;1.00;;;13.30;80.50;20.70;99203.00;;;;5068036;28;20524;-70
2021/05/06 09:04:14;;;;;;;3.17;1.13;;;13.30;80.60;20.80;99163.00;;;;5035043;28;20406;-70
2021/05/06 09:07:02;;;;;;;3.00;1.00;;;13.30;80.60;21.10;99200.00;;;;5051568;28;20852;-70
2021/05/06 09:09:30;;;;;;;2.90;1.00;;;13.30;80.60;21.00;99188.00;;;;5070279;28;20312;-70
2021/05/06 09:12:01;;;;;;;3.50;1.03;;;13.30;81.40;21.00;99183.00;;;;5055317;28;20426;-71
2021/05/06 09:14:56;;;;;;;3.20;1.13;;;13.30;80.60;21.00;99200.00;;;;5039099;28;20837;-70
2021/05/06 09:17:33;;;;;;;4.30;1.10;;;13.30;80.50;21.00;99186.00;;;;5034190;28;20571;-70
2021/05/06 09:20:11;;;;;;;3.33;1.30;;;13.30;80.50;20.90;99176.00;;;;5072110;28;20410;-71
2021/05/06 09:22:47;;;;;;;3.23;1.27;;;13.30;80.60;21.00;99178.00;;;;5073370;28;20500;-70
2021/05/06 09:25:36;;;;;;;3.67;1.23;;;13.30;80.50;20.90;99175.00;;;;5054822;28;20429;-71
2021/05/06 09:28:11;;;;;;;3.07;1.03;;;13.30;80.50;20.90;99186.00;;;;5054681;28;20469;-70
2021/05/06 09:30:59;;;;;;;3.43;1.13;;;13.30;80.40;20.90;99183.00;;;;5072768;28;20455;-70
2021/05/06 09:33:39;;;;;;;3.60;1.43;;;13.30;80.50;20.90;99178.00;;;;5071988;28;20923;-71
2021/05/06 09:36:12;;;;;;;4.17;1.20;;;13.30;80.40;20.90;99180.00;;;;5055528;28;20472;-70
2021/05/06 09:38:52;;;;;;;3.40;1.40;;;13.30;80.30;20.90;99167.00;;;;5055001;28;20789;-70
2021/05/06 09:41:31;;;;;;;3.47;1.33;;;13.30;80.40;21.00;99176.00;;;;5055852;28;20480;-70
2021/05/06 09:44:13;;;;;;;3.37;1.10;;;13.30;80.40;20.90;99182.00;;;;5056346;28;20425;-70
2021/05/06 09:46:55;;;;;;;3.20;1.40;;;13.30;80.40;21.10;99133.00;;;;5039983;28;20424;-70
2021/05/06 09:49:21;;;;;;;3.60;1.20;;;13.30;80.40;21.00;99161.00;;;;5057091;28;20478;-70
2021/05/06 09:51:49;;;;;;;3.10;1.13;;;13.30;80.40;21.00;99168.00;;;;5071165;28;20428;-70
2021/05/06 09:54:30;;;;;;;3.20;1.13;;;13.30;80.30;21.00;99167.00;;;;5054387;28;20945;-70
2021/05/06 09:57:04;;;;;;;3.40;1.13;;;13.40;80.30;21.20;99159.00;;;;5054463;28;20455;-70
2021/05/06 09:59:37;;;;;;;3.30;1.10;;;13.40;80.20;21.00;99147.00;;;;5071194;28;20413;-71
2021/05/06 10:02:14;;;;;;;3.53;1.30;;;13.40;80.10;21.10;99150.00;;;;5054964;28;20490;-70
2021/05/06 10:04:43;;;;;;;3.17;1.10;;;13.40;80.40;21.00;99156.00;;;;5039270;28;20906;-70
2021/05/06 10:07:23;;;;;;;3.00;1.20;;;13.40;80.30;21.00;99159.00;;;;5070315;28;20434;-70
2021/05/06 10:09:51;;;;;;;3.57;1.07;;;13.40;80.30;21.00;99152.00;;;;5055196;28;20919;-70
2021/05/06 10:12:17;;;;;;;4.10;1.20;;;13.40;80.20;21.00;99146.00;;;;5072077;28;20426;-70
2021/05/06 10:14:45;;;;;;;4.27;1.20;;;13.40;80.10;20.90;99153.00;;;;5037434;28;20418;-70
2021/05/06 10:17:13;;;;;;;4.40;1.27;;;13.40;80.30;21.00;99148.00;;;;5070578;28;20216;-70
2021/05/06 10:19:40;;;;;;;3.27;1.30;;;13.40;80.20;21.10;99147.00;;;;5037927;28;20496;-70
2021/05/06 10:22:08;;;;;;;3.67;1.63;;;13.40;80.10;21.00;99149.00;;;;5069950;28;20451;-70
2021/05/06 10:24:33;;;;;;;3.67;1.20;;;13.40;80.10;21.00;99139.00;;;;5070918;28;20406;-70
2021/05/06 10:26:59;;;;;;;3.53;1.17;;;13.40;80.10;20.80;99138.00;;;;5053784;28;20437;-70
2021/05/06 10:29:25;;;;;;;3.43;1.40;;;13.40;80.10;21.00;99145.00;;;;5037165;28;20209;-70
2021/05/06 10:31:51;;;;;;;3.90;1.20;;;13.40;80.10;20.90;99135.00;;;;5070160;28;20456;-70
2021/05/06 10:34:16;;;;;;;3.27;1.30;;;13.40;80.00;20.90;99139.00;;;;5072038;28;20531;-72
2021/05/06 10:36:43;;;;;;;4.27;1.13;;;13.40;80.10;21.00;99138.00;;;;5054096;28;20225;-70
2021/05/06 10:39:12;;;;;;;3.23;1.17;;;13.40;80.10;20.90;99115.00;;;;5037646;28;20488;-71
2021/05/06 10:41:38;;;;;;;3.10;1.20;;;13.40;80.10;20.90;99133.00;;;;5070450;28;20408;-70
2021/05/06 10:44:07;;;;;;;3.40;1.20;;;13.40;80.10;20.90;99135.00;;;;5037568;28;20408;-70
2021/05/06 10:47:01;;;;;;;3.23;1.10;;;13.40;79.80;20.90;99135.00;;;;5070285;28;20414;-70
2021/05/06 10:49:38;;;;;;;3.33;1.20;;;13.40;80.10;21.00;99135.00;;;;5070417;28;20890;-70
2021/05/06 10:52:06;;;;;;;3.73;1.17;;;13.40;80.10;20.90;99137.00;;;;5071216;28;20594;-70
2021/05/06 10:54:53;;;;;;;4.67;1.70;;;13.40;80.10;21.20;99136.00;;;;5070218;28;20907;-70
2021/05/06 10:57:19;;;;;;;3.70;1.30;;;13.40;80.00;21.10;99129.00;;;;5069692;28;20483;-70
2021/05/06 10:59:46;;;;;;;3.73;1.37;;;13.40;80.10;20.90;99131.00;;;;5071083;28;20482;-71
2021/05/06 11:02:39;;;;;;;3.43;1.30;;;13.50;80.30;21.10;99118.00;;;;5036942;28;20753;-71
2021/05/06 11:05:22;;;;;;;3.80;1.43;;;13.50;80.30;20.90;99125.00;;;;5070125;28;20509;-70
2021/05/06 11:08:07;;;;;;;3.27;1.10;;;13.40;80.10;21.00;99120.00;;;;5052661;28;20490;-70
2021/05/06 11:10:47;;;;;;;3.87;1.30;;;13.50;80.30;21.10;99119.00;;;;5068985;28;20445;-70
2021/05/06 11:13:13;;;;;;;4.13;1.10;;;13.50;80.30;21.10;99108.00;;;;5070288;28;20425;-70
2021/05/06 11:15:39;;;;;;;3.50;1.67;;;13.40;80.20;21.00;99102.00;;;;5069615;28;20971;-72
2021/05/06 11:18:07;;;;;;;3.20;1.27;;;13.50;80.40;21.00;99097.00;;;;5068288;28;20436;-70
2021/05/06 11:20:34;;;;;;;4.27;1.47;;;13.50;80.30;21.10;99110.00;;;;5036450;28;20900;-70
2021/05/06 11:23:01;;;;;;;3.30;1.30;;;13.50;80.10;21.00;99097.00;;;;5070744;28;20474;-70
2021/05/06 11:25:30;;;;;;;3.80;1.20;;;13.50;80.20;21.10;99096.00;;;;5036425;28;20410;-70
2021/05/06 11:28:04;;;;;;;4.50;1.50;;;13.50;80.30;21.00;99096.00;;;;5070834;28;20453;-70
2021/05/06 11:30:48;;;;;;;3.20;1.20;;;13.50;80.30;21.20;99087.00;;;;5036424;28;21005;-70
2021/05/06 11:33:25;;;;;;;4.20;1.47;;;13.50;80.30;21.00;99090.00;;;;5068652;28;20947;-70
2021/05/06 11:36:18;;;;;;;3.13;1.20;;;13.50;80.40;20.90;99085.00;;;;5070532;28;20429;-69
2021/05/06 11:38:54;;;;;;;3.13;1.10;;;13.50;80.30;21.00;99079.00;;;;5068960;28;20525;-70
2021/05/06 11:41:32;;;;;;;3.60;1.33;;;13.50;80.30;21.10;99074.00;;;;5054279;28;20955;-70
2021/05/06 11:44:05;;;;;;;4.77;1.40;;;13.50;80.30;20.90;99076.00;;;;5069084;28;20401;-70
2021/05/06 11:46:42;;;;;;;3.33;1.20;;;13.50;80.10;21.00;99065.00;;;;5053528;28;20423;-70
2021/05/06 11:49:13;;;;;;;4.33;1.40;;;13.50;80.00;21.10;99071.00;;;;5068673;28;20535;-70
2021/05/06 11:51:41;;;;;;;3.50;1.30;;;13.50;80.20;21.20;99060.00;;;;5052409;28;20480;-70
2021/05/06 11:54:12;;;;;;;4.50;1.40;;;13.50;80.00;21.00;99062.00;;;;5069134;28;21106;-70
2021/05/06 11:56:39;;;;;;;3.33;1.50;;;13.50;80.00;21.10;99052.00;;;;5052537;28;20439;-70
2021/05/06 11:59:13;;;;;;;3.60;1.47;;;13.50;79.90;21.10;99057.00;;;;5068356;28;20414;-70
2021/05/06 12:01:39;;;;;;;3.70;1.40;;;13.50;80.10;21.00;99054.00;;;;5051164;28;20410;-70
2021/05/06 12:04:05;;;;;;;3.60;1.20;;;13.50;80.10;21.00;99052.00;;;;5052099;28;20430;-71
2021/05/06 12:06:31;;;;;;;5.23;1.53;;;13.50;80.10;21.00;99057.00;;;;5068258;28;20189;-70
2021/05/06 12:08:57;;;;;;;3.63;1.40;;;13.50;79.90;21.10;99051.00;;;;5068683;28;20469;-70
2021/05/06 12:11:40;;;;;;;3.37;1.27;;;13.50;80.00;21.20;99049.00;;;;5050418;28;20403;-70
2021/05/06 12:14:14;;;;;;;3.53;1.47;;;13.50;80.10;21.00;99050.00;;;;5067146;28;20409;-70
2021/05/06 12:16:40;;;;;;;5.67;1.87;;;13.50;80.00;21.10;99036.00;;;;5068005;28;20426;-70
2021/05/06 12:19:16;;;;;;;3.37;1.30;;;13.50;80.10;21.30;99042.00;;;;5068889;28;20497;-70
2021/05/06 12:21:55;;;;;;;3.50;1.30;;;13.50;80.20;21.00;99037.00;;;;5069476;28;20414;-69
2021/05/06 12:24:33;;;;;;;3.87;1.57;;;13.50;80.10;21.00;99035.00;;;;5053094;28;20671;-70
2021/05/06 12:27:23;;;;;;;3.40;1.33;;;13.50;80.10;21.00;99037.00;;;;5066999;28;20470;-70
2021/05/06 12:29:56;;;;;;;4.93;1.37;;;13.50;80.00;21.30;99041.00;;;;5049949;28;20458;-70
2021/05/06 12:32:26;;;;;;;3.60;1.30;;;13.50;80.10;21.10;99027.00;;;;5048370;28;20514;-70
2021/05/06 12:34:54;;;;;;;4.47;1.50;;;13.50;80.10;21.10;99022.00;;;;5014792;28;20403;-70
2021/05/06 12:37:28;;;;;;;4.03;1.30;;;13.50;80.10;21.10;99024.00;;;;5031732;28;20472;-69
2021/05/06 12:39:54;;;;;;;3.30;1.30;;;13.50;80.10;20.90;99021.00;;;;5031696;28;20555;-70
2021/05/06 12:42:30;;;;;;;5.33;1.50;;;13.60;80.10;21.30;99022.00;;;;5046050;28;20551;-70
2021/05/06 12:44:56;;;;;;;3.27;1.23;;;13.60;80.20;21.00;99019.00;;;;5049538;28;20410;-70
2021/05/06 12:47:27;;;;;;;4.07;1.50;;;13.60;80.30;21.30;99011.00;;;;5052646;28;20439;-70
2021/05/06 12:50:12;;;;;;;3.37;1.30;;;13.60;80.10;21.20;99010.00;;;;5051634;28;20484;-70
2021/05/06 12:52:41;;;;;;;2.90;1.10;;;13.60;81.00;21.10;99001.00;;;;5051712;28;20976;-70
2021/05/06 12:55:26;;;;;;;3.77;1.57;;;13.60;80.10;21.20;98994.00;;;;5052661;28;20904;-70
2021/05/06 12:58:07;;;;;;;3.30;1.27;;;13.60;80.10;21.20;98986.00;;;;5034868;28;20812;-70
2021/05/06 13:00:36;;;;;;;4.17;1.50;;;13.60;80.10;21.10;98997.00;;;;5052282;28;20470;-70
2021/05/06 13:03:02;;;;;;;6.27;1.43;;;13.60;80.10;21.10;98981.00;;;;5035292;28;20844;-70
2021/05/06 13:05:39;;;;;;;4.07;1.70;;;13.60;80.10;21.30;98986.00;;;;5035206;28;20952;-71
2021/05/06 13:08:05;;;;;;;3.43;1.43;;;13.60;80.10;21.30;98973.00;;;;5021122;28;20862;-70
2021/05/06 13:10:37;;;;;;;3.73;1.37;;;13.60;80.00;21.30;98973.00;;;;5054938;28;20558;-70
2021/05/06 13:13:09;;;;;;;3.43;1.10;;;13.70;80.10;21.30;98980.00;;;;5071906;28;20912;-70
2021/05/06 13:15:52;;;;;;;4.00;1.30;;;13.70;80.10;21.10;98972.00;;;;5071622;28;20493;-69
2021/05/06 13:18:19;;;;;;;3.77;1.43;;;13.70;80.20;21.30;98974.00;;;;5037847;28;20430;-70
2021/05/06 13:20:45;;;;;;;3.20;1.23;;;13.70;80.10;21.40;98959.00;;;;5072687;28;20418;-70
2021/05/06 13:23:33;;;;;;;6.20;1.63;;;13.70;80.20;21.20;98956.00;;;;5054702;28;20422;-71
2021/05/06 13:26:01;;;;;;;3.93;1.67;;;13.70;80.20;21.40;98958.00;;;;5072088;28;20501;-70
2021/05/06 13:28:33;;;;;;;3.70;1.60;;;13.70;80.20;21.30;98957.00;;;;5055294;28;20530;-70
2021/05/06 13:31:21;;;;;;;4.03;1.17;;;13.70;80.10;21.30;98962.00;;;;5072907;28;20471;-70
2021/05/06 13:34:14;;;;;;;4.13;1.30;;;13.70;80.10;21.40;98955.00;;;;5039558;28;20523;-70
2021/05/06 13:37:06;;;;;;;4.80;1.43;;;13.70;80.20;21.20;98949.00;;;;5071637;28;20555;-70
2021/05/06 13:39:35;;;;;;;3.90;1.33;;;13.70;80.10;21.30;98935.00;;;;5067639;28;20451;-70
2021/05/06 13:42:01;;;;;;;4.43;1.57;;;13.70;80.00;21.40;98950.00;;;;5055499;28;20449;-70
2021/05/06 13:44:29;;;;;;;4.37;1.57;;;13.70;80.00;21.10;98938.00;;;;5054251;28;20435;-69
2021/05/06 13:46:59;;;;;;;4.43;1.30;;;13.70;80.10;21.20;98932.00;;;;5055034;28;20198;-70
2021/05/06 13:49:30;;;;;;;4.47;1.50;;;13.70;80.10;21.30;98933.00;;;;5051788;28;20483;-69
2021/05/06 13:51:57;;;;;;;3.73;1.47;;;13.70;80.80;21.40;98928.00;;;;5054695;28;20581;-70
2021/05/06 13:54:23;;;;;;;3.70;1.30;;;13.80;80.10;21.30;98922.00;;;;5050570;28;20415;-70
2021/05/06 13:56:49;;;;;;;3.50;1.53;;;13.70;80.00;21.20;98923.00;;;;5032699;28;20419;-70
2021/05/06 13:59:14;;;;;;;3.50;1.40;;;13.70;80.00;21.30;98913.00;;;;5033071;28;20459;-70
2021/05/06 14:01:40;;;;;;;3.33;1.20;;;13.80;80.10;21.40;98922.00;;;;5034316;28;20411;-70
2021/05/06 14:04:06;;;;;;;4.07;1.40;;;13.70;80.00;21.50;98932.00;;;;5033088;28;20547;-70
2021/05/06 14:06:36;;;;;;;3.50;1.40;;;13.80;80.10;21.40;98916.00;;;;5057541;28;20441;-70
2021/05/06 14:09:02;;;;;;;3.27;1.33;;;13.80;80.10;21.60;98912.00;;;;5049926;28;20474;-70
2021/05/06 14:11:28;;;;;;;3.50;1.40;;;13.80;80.00;21.50;98918.00;;;;5049894;28;20863;-69
2021/05/06 14:13:56;;;;;;;3.67;1.60;;;13.80;80.10;21.30;98916.00;;;;5049863;28;20466;-70
2021/05/06 14:16:25;;;;;;;5.00;1.60;;;13.80;80.00;21.50;98901.00;;;;5050458;28;20635;-70
2021/05/06 14:18:52;;;;;;;3.70;1.57;;;13.80;80.00;21.40;98905.00;;;;5065676;28;20877;-70
2021/05/06 14:21:21;;;;;;;4.90;1.93;;;13.80;80.00;21.30;98899.00;;;;5051591;28;20468;-70
2021/05/06 14:23:47;;;;;;;3.70;1.50;;;13.80;80.10;21.50;98886.00;;;;5051741;28;20518;-70
2021/05/06 14:26:14;;;;;;;3.70;1.43;;;13.80;80.00;21.60;98887.00;;;;5032477;28;20510;-70
2021/05/06 14:28:43;;;;;;;3.60;1.27;;;13.90;80.00;21.50;98847.00;;;;5049621;28;20705;-70